Merck (PN44)
Upper Gwynedd, PA
Field Elevation: 355
Lat: 40°12.97N  Long: 75°16.80W
   
    
Weather Advisories
2017-12-13   01:38 Z
Altimeter 29.56" Hg
Wind 310° @ 8 KT
Gusts 22 KT
Visibility 10 SM
Ceiling SCT130
Temperature -2° C (28° F)
Dewpoint -12° C (10° F)
Relative Humidity 45%
Density Altitude --
Condensation Altitude 5,600 feet
Wind Chill: -7° C (19° F)
Wind and Runways
Indicated Runway = 27
Headwind = 6 kt
Crosswind = 5 kt
History
 
 
 
More Info
All DigiWx sites map
NOAA Forecast
 
Airport IQ 5010
(8PS5) Hershey Medical
(8NJ1) Whitehouse
 
about DigiWx
 
FAA Disclaimer: The data displayed is for advisory purposes only and is not to be used for flight planning or operations. For official data, please call (not available) to hear the current automated AWOS voice message.
  METAR pn44 130138Z AUTO 31008G22KT VIS 10 SM SCT130 M02/M12 A2956